sensor_id;sensor_type;location;lat;lon;timestamp;noise_LAeq;noise_LA_min;noise_LA_max;noise_LA01;noise_LA95
77134;Laerm;25175;50.140;18.990;2023-05-07T00:01:55;33.45;31.82;36.81;;
77134;Laerm;25175;50.140;18.990;2023-05-07T00:05:13;33.87;31.89;56.32;;
77134;Laerm;25175;50.140;18.990;2023-05-07T00:08:20;33.30;32.08;36.24;;
77134;Laerm;25175;50.140;18.990;2023-05-07T00:11:25;33.71;31.88;38.68;;
77134;Laerm;25175;50.140;18.990;2023-05-07T00:14:31;38.42;31.84;53.16;;
77134;Laerm;25175;50.140;18.990;2023-05-07T00:17:45;33.49;32.01;39.16;;
77134;Laerm;25175;50.140;18.990;2023-05-07T00:20:51;33.97;31.78;44.00;;
77134;Laerm;25175;50.140;18.990;2023-05-07T00:24:00;33.31;32.00;37.17;;
77134;Laerm;25175;50.140;18.990;2023-05-07T00:27:06;33.34;31.91;38.76;;
77134;Laerm;25175;50.140;18.990;2023-05-07T00:30:13;33.62;31.88;42.02;;
77134;Laerm;25175;50.140;18.990;2023-05-07T00:33:22;33.40;31.94;37.39;;
77134;Laerm;25175;50.140;18.990;2023-05-07T00:36:28;33.31;31.92;36.93;;
77134;Laerm;25175;50.140;18.990;2023-05-07T00:39:35;37.73;32.09;56.25;;
77134;Laerm;25175;50.140;18.990;2023-05-07T00:42:40;35.54;31.80;49.08;;
77134;Laerm;25175;50.140;18.990;2023-05-07T00:45:49;37.05;32.13;50.50;;
77134;Laerm;25175;50.140;18.990;2023-05-07T00:48:58;33.37;31.74;36.44;;
77134;Laerm;25175;50.140;18.990;2023-05-07T00:52:11;33.55;32.04;37.10;;
77134;Laerm;25175;50.140;18.990;2023-05-07T00:55:18;33.32;31.65;37.09;;
77134;Laerm;25175;50.140;18.990;2023-05-07T00:58:25;33.68;31.99;38.85;;
77134;Laerm;25175;50.140;18.990;2023-05-07T01:01:31;38.48;33.16;48.03;;
77134;Laerm;25175;50.140;18.990;2023-05-07T01:04:40;40.24;32.60;48.00;;
77134;Laerm;25175;50.140;18.990;2023-05-07T01:07:53;34.24;32.08;43.21;;
77134;Laerm;25175;50.140;18.990;2023-05-07T01:11:01;37.85;32.16;49.82;;
77134;Laerm;25175;50.140;18.990;2023-05-07T01:14:08;33.45;32.13;36.80;;
77134;Laerm;25175;50.140;18.990;2023-05-07T01:17:15;34.94;31.82;46.62;;
77134;Laerm;25175;50.140;18.990;2023-05-07T01:20:27;34.05;31.96;41.39;;
77134;Laerm;25175;50.140;18.990;2023-05-07T01:23:36;33.52;32.06;37.84;;
77134;Laerm;25175;50.140;18.990;2023-05-07T01:26:43;33.43;31.91;36.63;;
77134;Laerm;25175;50.140;18.990;2023-05-07T01:29:52;33.46;31.87;36.78;;
77134;Laerm;25175;50.140;18.990;2023-05-07T01:33:04;36.51;31.87;50.98;;
77134;Laerm;25175;50.140;18.990;2023-05-07T01:36:13;33.61;32.03;37.02;;
77134;Laerm;25175;50.140;18.990;2023-05-07T01:39:32;33.51;32.04;37.25;;
77134;Laerm;25175;50.140;18.990;2023-05-07T01:42:39;33.40;31.87;36.82;;
77134;Laerm;25175;50.140;18.990;2023-05-07T01:45:50;33.80;32.26;39.39;;
77134;Laerm;25175;50.140;18.990;2023-05-07T01:48:57;33.62;31.98;39.64;;
77134;Laerm;25175;50.140;18.990;2023-05-07T01:52:11;33.72;32.08;40.51;;
77134;Laerm;25175;50.140;18.990;2023-05-07T01:55:19;34.07;32.06;46.56;;
77134;Laerm;25175;50.140;18.990;2023-05-07T01:58:27;35.80;32.28;46.80;;
77134;Laerm;25175;50.140;18.990;2023-05-07T02:01:32;36.44;31.98;51.15;;
77134;Laerm;25175;50.140;18.990;2023-05-07T02:04:43;36.42;32.35;49.69;;
77134;Laerm;25175;50.140;18.990;2023-05-07T02:07:49;36.55;32.23;50.42;;
77134;Laerm;25175;50.140;18.990;2023-05-07T02:10:59;37.34;32.41;53.99;;
77134;Laerm;25175;50.140;18.990;2023-05-07T02:14:07;36.23;32.24;51.73;;
77134;Laerm;25175;50.140;18.990;2023-05-07T02:17:13;35.57;32.23;46.61;;
77134;Laerm;25175;50.140;18.990;2023-05-07T02:20:18;36.11;32.23;49.64;;
77134;Laerm;25175;50.140;18.990;2023-05-07T02:23:25;36.39;32.22;50.35;;
77134;Laerm;25175;50.140;18.990;2023-05-07T02:26:47;36.52;32.01;51.35;;
77134;Laerm;25175;50.140;18.990;2023-05-07T02:30:25;36.49;32.24;52.18;;
77134;Laerm;25175;50.140;18.990;2023-05-07T02:33:36;38.17;32.10;52.86;;
77134;Laerm;25175;50.140;18.990;2023-05-07T02:36:45;37.59;32.15;51.03;;
77134;Laerm;25175;50.140;18.990;2023-05-07T02:40:15;35.75;32.18;46.79;;
77134;Laerm;25175;50.140;18.990;2023-05-07T02:43:24;42.45;32.23;62.07;;
77134;Laerm;25175;50.140;18.990;2023-05-07T02:46:42;37.46;31.98;55.66;;
77134;Laerm;25175;50.140;18.990;2023-05-07T02:49:50;35.27;32.19;44.83;;
77134;Laerm;25175;50.140;18.990;2023-05-07T02:52:56;35.06;31.90;53.75;;
77134;Laerm;25175;50.140;18.990;2023-05-07T02:56:03;35.06;32.04;46.55;;
77134;Laerm;25175;50.140;18.990;2023-05-07T02:59:18;39.62;31.84;56.76;;
77134;Laerm;25175;50.140;18.990;2023-05-07T03:02:29;37.84;32.23;52.23;;
77134;Laerm;25175;50.140;18.990;2023-05-07T03:05:34;40.14;31.62;57.01;;
77134;Laerm;25175;50.140;18.990;2023-05-07T03:08:40;45.08;32.38;61.33;;
77134;Laerm;25175;50.140;18.990;2023-05-07T03:11:45;43.35;32.10;60.33;;
77134;Laerm;25175;50.140;18.990;2023-05-07T03:14:54;34.33;32.21;41.22;;
77134;Laerm;25175;50.140;18.990;2023-05-07T03:18:38;35.57;32.32;49.21;;
77134;Laerm;25175;50.140;18.990;2023-05-07T03:21:44;40.94;32.42;56.00;;
77134;Laerm;25175;50.140;18.990;2023-05-07T03:24:50;38.66;32.39;58.20;;
77134;Laerm;25175;50.140;18.990;2023-05-07T03:27:56;38.03;32.45;54.79;;
77134;Laerm;25175;50.140;18.990;2023-05-07T03:34:56;42.42;32.36;60.06;;
77134;Laerm;25175;50.140;18.990;2023-05-07T03:38:01;41.89;32.26;59.25;;
77134;Laerm;25175;50.140;18.990;2023-05-07T03:41:12;34.41;32.20;42.43;;
77134;Laerm;25175;50.140;18.990;2023-05-07T03:44:28;35.25;32.28;47.62;;
77134;Laerm;25175;50.140;18.990;2023-05-07T03:47:42;36.87;32.21;49.66;;
77134;Laerm;25175;50.140;18.990;2023-05-07T03:50:51;34.89;32.01;46.92;;
77134;Laerm;25175;50.140;18.990;2023-05-07T03:53:57;38.61;32.24;56.16;;
77134;Laerm;25175;50.140;18.990;2023-05-07T03:57:04;35.23;32.23;48.51;;
77134;Laerm;25175;50.140;18.990;2023-05-07T04:00:15;34.00;32.09;40.35;;
77134;Laerm;25175;50.140;18.990;2023-05-07T04:03:27;35.27;32.10;50.05;;
77134;Laerm;25175;50.140;18.990;2023-05-07T04:06:35;35.10;32.17;52.35;;
77134;Laerm;25175;50.140;18.990;2023-05-07T04:09:41;41.01;32.12;58.24;;
77134;Laerm;25175;50.140;18.990;2023-05-07T04:12:47;36.40;32.12;50.42;;
77134;Laerm;25175;50.140;18.990;2023-05-07T04:15:56;33.93;32.13;41.22;;
77134;Laerm;25175;50.140;18.990;2023-05-07T04:19:08;34.18;32.30;47.41;;
77134;Laerm;25175;50.140;18.990;2023-05-07T04:22:14;38.59;32.55;57.33;;
77134;Laerm;25175;50.140;18.990;2023-05-07T04:25:33;35.90;32.23;47.36;;
77134;Laerm;25175;50.140;18.990;2023-05-07T04:28:46;36.97;32.33;48.96;;
77134;Laerm;25175;50.140;18.990;2023-05-07T04:31:54;40.11;32.42;58.01;;
77134;Laerm;25175;50.140;18.990;2023-05-07T04:35:08;38.88;32.38;51.57;;
77134;Laerm;25175;50.140;18.990;2023-05-07T04:38:15;37.40;32.30;52.25;;
77134;Laerm;25175;50.140;18.990;2023-05-07T04:41:22;47.73;32.29;64.23;;
77134;Laerm;25175;50.140;18.990;2023-05-07T04:44:31;44.58;32.19;60.19;;
77134;Laerm;25175;50.140;18.990;2023-05-07T04:47:36;40.37;32.38;59.91;;
77134;Laerm;25175;50.140;18.990;2023-05-07T04:50:48;40.37;32.10;55.81;;
77134;Laerm;25175;50.140;18.990;2023-05-07T04:53:54;38.42;32.06;56.77;;
77134;Laerm;25175;50.140;18.990;2023-05-07T04:57:00;38.84;32.17;54.24;;
77134;Laerm;25175;50.140;18.990;2023-05-07T05:00:07;38.64;32.29;57.74;;
77134;Laerm;25175;50.140;18.990;2023-05-07T05:03:18;36.15;32.33;46.74;;
77134;Laerm;25175;50.140;18.990;2023-05-07T05:09:44;35.37;31.92;51.96;;
77134;Laerm;25175;50.140;18.990;2023-05-07T05:12:49;33.62;32.01;44.47;;
77134;Laerm;25175;50.140;18.990;2023-05-07T05:15:56;34.61;32.08;44.57;;
77134;Laerm;25175;50.140;18.990;2023-05-07T05:19:04;37.87;32.07;64.01;;
77134;Laerm;25175;50.140;18.990;2023-05-07T05:22:17;38.99;32.15;55.62;;
77134;Laerm;25175;50.140;18.990;2023-05-07T05:25:24;40.12;32.19;60.29;;
77134;Laerm;25175;50.140;18.990;2023-05-07T05:28:31;34.87;32.18;54.99;;
77134;Laerm;25175;50.140;18.990;2023-05-07T05:31:38;41.59;32.13;60.00;;
77134;Laerm;25175;50.140;18.990;2023-05-07T05:34:44;41.58;32.23;59.28;;
77134;Laerm;25175;50.140;18.990;2023-05-07T05:37:52;38.81;32.29;55.72;;
77134;Laerm;25175;50.140;18.990;2023-05-07T05:40:59;36.74;32.21;53.82;;
77134;Laerm;25175;50.140;18.990;2023-05-07T05:44:07;33.87;32.23;40.85;;
77134;Laerm;25175;50.140;18.990;2023-05-07T05:47:14;34.76;32.05;45.75;;
77134;Laerm;25175;50.140;18.990;2023-05-07T05:50:19;39.91;32.29;53.87;;
77134;Laerm;25175;50.140;18.990;2023-05-07T05:53:28;36.48;32.12;54.13;;
77134;Laerm;25175;50.140;18.990;2023-05-07T05:56:34;41.80;32.47;57.80;;
77134;Laerm;25175;50.140;18.990;2023-05-07T05:59:43;37.44;32.61;51.43;;
77134;Laerm;25175;50.140;18.990;2023-05-07T06:02:49;39.54;32.35;54.31;;
77134;Laerm;25175;50.140;18.990;2023-05-07T06:05:59;44.46;32.49;60.95;;
77134;Laerm;25175;50.140;18.990;2023-05-07T06:09:07;42.80;32.18;60.13;;
77134;Laerm;25175;50.140;18.990;2023-05-07T06:12:18;43.46;32.65;61.71;;
77134;Laerm;25175;50.140;18.990;2023-05-07T06:15:24;40.21;32.55;54.07;;
77134;Laerm;25175;50.140;18.990;2023-05-07T06:18:30;36.30;32.57;52.83;;
77134;Laerm;25175;50.140;18.990;2023-05-07T06:21:39;38.98;32.56;55.72;;
77134;Laerm;25175;50.140;18.990;2023-05-07T06:24:51;42.38;33.09;56.19;;
77134;Laerm;25175;50.140;18.990;2023-05-07T06:27:59;38.69;32.65;53.16;;
77134;Laerm;25175;50.140;18.990;2023-05-07T06:31:14;40.82;32.62;55.33;;
77134;Laerm;25175;50.140;18.990;2023-05-07T06:34:25;41.62;32.90;58.51;;
77134;Laerm;25175;50.140;18.990;2023-05-07T06:37:32;41.07;32.62;53.65;;
77134;Laerm;25175;50.140;18.990;2023-05-07T06:40:55;40.11;32.37;57.50;;
77134;Laerm;25175;50.140;18.990;2023-05-07T06:44:01;37.59;32.76;48.68;;
77134;Laerm;25175;50.140;18.990;2023-05-07T06:47:17;36.74;32.71;47.40;;
77134;Laerm;25175;50.140;18.990;2023-05-07T06:50:27;41.38;32.62;55.98;;
77134;Laerm;25175;50.140;18.990;2023-05-07T06:53:36;41.80;32.46;58.12;;
77134;Laerm;25175;50.140;18.990;2023-05-07T06:56:44;41.12;32.64;58.06;;
77134;Laerm;25175;50.140;18.990;2023-05-07T07:04:03;45.48;32.98;59.08;;
77134;Laerm;25175;50.140;18.990;2023-05-07T07:07:09;43.89;32.79;60.52;;
77134;Laerm;25175;50.140;18.990;2023-05-07T07:10:16;40.48;32.46;57.84;;
77134;Laerm;25175;50.140;18.990;2023-05-07T07:13:25;36.60;32.54;48.09;;
77134;Laerm;25175;50.140;18.990;2023-05-07T07:16:31;39.22;32.31;54.75;;
77134;Laerm;25175;50.140;18.990;2023-05-07T07:19:37;40.60;32.51;68.13;;
77134;Laerm;25175;50.140;18.990;2023-05-07T07:22:45;40.92;32.54;57.58;;
77134;Laerm;25175;50.140;18.990;2023-05-07T07:25:52;40.90;32.47;52.03;;
77134;Laerm;25175;50.140;18.990;2023-05-07T07:29:00;39.56;32.64;55.68;;
77134;Laerm;25175;50.140;18.990;2023-05-07T07:32:06;49.96;32.88;60.95;;
77134;Laerm;25175;50.140;18.990;2023-05-07T07:35:11;42.00;32.91;56.64;;
77134;Laerm;25175;50.140;18.990;2023-05-07T07:38:19;37.05;32.58;49.27;;
77134;Laerm;25175;50.140;18.990;2023-05-07T07:41:25;42.83;32.98;59.80;;
77134;Laerm;25175;50.140;18.990;2023-05-07T07:44:33;40.44;32.96;53.65;;
77134;Laerm;25175;50.140;18.990;2023-05-07T07:47:43;41.88;32.76;54.71;;
77134;Laerm;25175;50.140;18.990;2023-05-07T07:50:50;42.07;33.27;55.73;;
77134;Laerm;25175;50.140;18.990;2023-05-07T07:53:56;41.46;33.31;56.79;;
77134;Laerm;25175;50.140;18.990;2023-05-07T07:57:09;41.49;33.12;55.64;;
77134;Laerm;25175;50.140;18.990;2023-05-07T08:00:18;44.01;32.69;60.07;;
77134;Laerm;25175;50.140;18.990;2023-05-07T08:03:28;44.24;32.68;66.84;;
77134;Laerm;25175;50.140;18.990;2023-05-07T08:06:35;42.83;32.58;62.75;;
77134;Laerm;25175;50.140;18.990;2023-05-07T08:09:41;44.02;32.85;62.88;;
77134;Laerm;25175;50.140;18.990;2023-05-07T08:12:47;44.73;32.98;59.71;;
77134;Laerm;25175;50.140;18.990;2023-05-07T08:15:56;40.06;33.20;56.57;;
77134;Laerm;25175;50.140;18.990;2023-05-07T08:19:02;45.13;33.00;62.40;;
77134;Laerm;25175;50.140;18.990;2023-05-07T08:22:09;43.18;32.75;58.51;;
77134;Laerm;25175;50.140;18.990;2023-05-07T08:25:15;39.27;32.41;54.36;;
77134;Laerm;25175;50.140;18.990;2023-05-07T08:28:24;42.48;33.14;58.14;;
77134;Laerm;25175;50.140;18.990;2023-05-07T08:31:32;40.87;32.80;54.89;;
77134;Laerm;25175;50.140;18.990;2023-05-07T08:34:38;39.81;32.77;59.07;;
77134;Laerm;25175;50.140;18.990;2023-05-07T08:37:43;40.74;32.82;56.48;;
77134;Laerm;25175;50.140;18.990;2023-05-07T08:40:50;44.63;32.65;58.03;;
77134;Laerm;25175;50.140;18.990;2023-05-07T08:43:59;41.44;33.61;54.57;;
77134;Laerm;25175;50.140;18.990;2023-05-07T08:47:12;43.85;32.91;60.10;;
77134;Laerm;25175;50.140;18.990;2023-05-07T08:50:20;40.82;33.32;53.20;;
77134;Laerm;25175;50.140;18.990;2023-05-07T08:53:28;43.74;33.28;63.90;;
77134;Laerm;25175;50.140;18.990;2023-05-07T08:56:33;47.61;32.77;79.98;;
77134;Laerm;25175;50.140;18.990;2023-05-07T08:59:40;46.61;33.26;68.07;;
77134;Laerm;25175;50.140;18.990;2023-05-07T09:02:50;43.19;33.19;58.98;;
77134;Laerm;25175;50.140;18.990;2023-05-07T09:05:56;42.67;32.81;58.33;;
77134;Laerm;25175;50.140;18.990;2023-05-07T09:09:04;46.02;34.00;61.78;;
77134;Laerm;25175;50.140;18.990;2023-05-07T09:12:10;48.48;33.22;65.63;;
77134;Laerm;25175;50.140;18.990;2023-05-07T09:15:16;45.10;32.82;62.85;;
77134;Laerm;25175;50.140;18.990;2023-05-07T09:18:28;44.16;33.02;63.41;;
77134;Laerm;25175;50.140;18.990;2023-05-07T09:21:33;41.80;32.89;56.32;;
77134;Laerm;25175;50.140;18.990;2023-05-07T09:24:48;42.04;32.20;57.13;;
77134;Laerm;25175;50.140;18.990;2023-05-07T09:27:56;43.67;32.81;57.76;;
77134;Laerm;25175;50.140;18.990;2023-05-07T09:31:01;44.71;32.98;68.29;;
77134;Laerm;25175;50.140;18.990;2023-05-07T09:34:10;49.03;33.02;68.50;;
77134;Laerm;25175;50.140;18.990;2023-05-07T09:37:19;42.16;32.88;56.63;;
77134;Laerm;25175;50.140;18.990;2023-05-07T09:40:27;42.12;33.09;57.93;;
77134;Laerm;25175;50.140;18.990;2023-05-07T09:43:39;39.87;33.17;54.35;;
77134;Laerm;25175;50.140;18.990;2023-05-07T09:46:53;41.81;32.75;58.42;;
77134;Laerm;25175;50.140;18.990;2023-05-07T09:50:12;41.58;33.26;53.39;;
77134;Laerm;25175;50.140;18.990;2023-05-07T09:53:22;45.70;33.37;56.85;;
77134;Laerm;25175;50.140;18.990;2023-05-07T09:56:31;43.67;33.59;57.33;;
77134;Laerm;25175;50.140;18.990;2023-05-07T09:59:38;43.53;33.05;56.03;;
77134;Laerm;25175;50.140;18.990;2023-05-07T10:02:54;46.55;33.23;58.74;;
77134;Laerm;25175;50.140;18.990;2023-05-07T10:06:15;45.05;33.06;59.78;;
77134;Laerm;25175;50.140;18.990;2023-05-07T10:09:26;44.42;32.56;58.84;;
77134;Laerm;25175;50.140;18.990;2023-05-07T10:12:32;43.62;33.08;59.84;;
77134;Laerm;25175;50.140;18.990;2023-05-07T10:15:46;44.96;32.99;70.82;;
77134;Laerm;25175;50.140;18.990;2023-05-07T10:18:53;43.01;33.37;65.77;;
77134;Laerm;25175;50.140;18.990;2023-05-07T10:22:06;39.43;33.09;56.55;;
77134;Laerm;25175;50.140;18.990;2023-05-07T10:25:25;39.23;33.01;57.23;;
77134;Laerm;25175;50.140;18.990;2023-05-07T10:28:41;41.05;33.18;57.57;;
77134;Laerm;25175;50.140;18.990;2023-05-07T10:32:00;39.39;32.66;59.73;;
77134;Laerm;25175;50.140;18.990;2023-05-07T10:35:21;45.42;33.09;70.34;;
77134;Laerm;25175;50.140;18.990;2023-05-07T10:38:31;45.14;33.47;59.54;;
77134;Laerm;25175;50.140;18.990;2023-05-07T10:44:54;42.64;32.74;54.33;;
77134;Laerm;25175;50.140;18.990;2023-05-07T10:48:11;42.07;32.59;59.31;;
77134;Laerm;25175;50.140;18.990;2023-05-07T10:51:22;40.96;32.72;55.88;;
77134;Laerm;25175;50.140;18.990;2023-05-07T10:55:23;41.60;32.91;55.52;;
77134;Laerm;25175;50.140;18.990;2023-05-07T10:58:53;42.29;33.00;59.67;;
77134;Laerm;25175;50.140;18.990;2023-05-07T11:02:06;41.95;32.97;60.08;;
77134;Laerm;25175;50.140;18.990;2023-05-07T11:05:22;45.71;33.79;61.29;;
77134;Laerm;25175;50.140;18.990;2023-05-07T11:08:53;43.71;33.63;55.69;;
77134;Laerm;25175;50.140;18.990;2023-05-07T11:12:53;45.43;32.95;59.85;;
77134;Laerm;25175;50.140;18.990;2023-05-07T11:16:16;43.35;33.18;59.41;;
77134;Laerm;25175;50.140;18.990;2023-05-07T11:19:50;43.06;32.65;67.78;;
77134;Laerm;25175;50.140;18.990;2023-05-07T11:23:56;40.50;32.61;67.47;;
77134;Laerm;25175;50.140;18.990;2023-05-07T11:27:13;41.89;32.64;65.08;;
77134;Laerm;25175;50.140;18.990;2023-05-07T11:30:22;43.80;32.57;60.38;;
77134;Laerm;25175;50.140;18.990;2023-05-07T11:33:32;44.17;32.93;59.00;;
77134;Laerm;25175;50.140;18.990;2023-05-07T11:36:44;43.26;32.76;58.92;;
77134;Laerm;25175;50.140;18.990;2023-05-07T11:40:05;43.51;32.99;64.33;;
77134;Laerm;25175;50.140;18.990;2023-05-07T11:43:11;40.51;33.89;54.84;;
77134;Laerm;25175;50.140;18.990;2023-05-07T11:50:10;44.70;33.77;65.58;;
77134;Laerm;25175;50.140;18.990;2023-05-07T11:53:16;42.43;34.02;57.89;;
77134;Laerm;25175;50.140;18.990;2023-05-07T11:56:25;44.84;33.71;58.93;;
77134;Laerm;25175;50.140;18.990;2023-05-07T11:59:30;43.73;34.61;57.96;;
77134;Laerm;25175;50.140;18.990;2023-05-07T12:02:43;43.29;34.14;57.29;;
77134;Laerm;25175;50.140;18.990;2023-05-07T12:05:53;44.06;33.44;61.30;;
77134;Laerm;25175;50.140;18.990;2023-05-07T12:08:58;45.31;34.08;58.96;;
77134;Laerm;25175;50.140;18.990;2023-05-07T12:12:04;44.41;33.55;64.45;;
77134;Laerm;25175;50.140;18.990;2023-05-07T12:15:10;48.11;34.61;66.14;;
77134;Laerm;25175;50.140;18.990;2023-05-07T12:18:16;46.55;34.25;64.54;;
77134;Laerm;25175;50.140;18.990;2023-05-07T12:21:26;39.66;33.64;52.02;;
77134;Laerm;25175;50.140;18.990;2023-05-07T12:24:44;44.95;33.82;59.29;;
77134;Laerm;25175;50.140;18.990;2023-05-07T12:27:52;42.77;34.19;55.24;;
77134;Laerm;25175;50.140;18.990;2023-05-07T12:31:02;43.73;33.20;59.07;;
77134;Laerm;25175;50.140;18.990;2023-05-07T12:34:07;47.43;34.10;67.91;;
77134;Laerm;25175;50.140;18.990;2023-05-07T12:37:16;44.72;33.96;60.67;;
77134;Laerm;25175;50.140;18.990;2023-05-07T12:40:21;43.27;33.49;56.75;;
77134;Laerm;25175;50.140;18.990;2023-05-07T12:43:30;41.74;33.52;55.98;;
77134;Laerm;25175;50.140;18.990;2023-05-07T12:46:39;43.98;33.77;55.30;;
77134;Laerm;25175;50.140;18.990;2023-05-07T12:49:45;42.55;33.16;58.13;;
77134;Laerm;25175;50.140;18.990;2023-05-07T12:52:53;43.82;33.47;62.20;;
77134;Laerm;25175;50.140;18.990;2023-05-07T12:56:00;41.83;33.92;54.73;;
77134;Laerm;25175;50.140;18.990;2023-05-07T12:59:06;44.63;34.59;60.58;;
77134;Laerm;25175;50.140;18.990;2023-05-07T13:02:13;41.21;33.89;56.42;;
77134;Laerm;25175;50.140;18.990;2023-05-07T13:05:19;43.47;33.17;55.58;;
77134;Laerm;25175;50.140;18.990;2023-05-07T13:08:31;49.36;33.76;70.66;;
77134;Laerm;25175;50.140;18.990;2023-05-07T13:11:36;45.70;33.49;65.03;;
77134;Laerm;25175;50.140;18.990;2023-05-07T13:14:43;42.61;33.07;63.51;;
77134;Laerm;25175;50.140;18.990;2023-05-07T13:17:48;42.76;33.23;60.44;;
77134;Laerm;25175;50.140;18.990;2023-05-07T13:20:55;42.60;33.54;63.19;;
77134;Laerm;25175;50.140;18.990;2023-05-07T13:24:03;42.82;33.63;60.35;;
77134;Laerm;25175;50.140;18.990;2023-05-07T13:27:09;43.81;33.76;60.03;;
77134;Laerm;25175;50.140;18.990;2023-05-07T13:30:14;46.87;33.35;66.49;;
77134;Laerm;25175;50.140;18.990;2023-05-07T13:33:20;48.51;33.65;70.73;;
77134;Laerm;25175;50.140;18.990;2023-05-07T13:36:26;48.19;33.37;68.71;;
77134;Laerm;25175;50.140;18.990;2023-05-07T13:39:34;47.67;33.28;70.78;;
77134;Laerm;25175;50.140;18.990;2023-05-07T13:42:39;47.39;33.21;71.03;;
77134;Laerm;25175;50.140;18.990;2023-05-07T13:45:45;44.14;34.05;65.93;;
77134;Laerm;25175;50.140;18.990;2023-05-07T13:48:50;44.83;33.79;61.27;;
77134;Laerm;25175;50.140;18.990;2023-05-07T13:51:55;47.83;34.11;65.53;;
77134;Laerm;25175;50.140;18.990;2023-05-07T13:55:05;48.99;33.92;67.75;;
77134;Laerm;25175;50.140;18.990;2023-05-07T13:58:11;45.65;34.40;65.44;;
77134;Laerm;25175;50.140;18.990;2023-05-07T14:01:16;42.06;33.66;56.79;;
77134;Laerm;25175;50.140;18.990;2023-05-07T14:04:24;46.07;34.00;65.35;;
77134;Laerm;25175;50.140;18.990;2023-05-07T14:07:41;45.03;33.56;74.85;;
77134;Laerm;25175;50.140;18.990;2023-05-07T14:10:50;55.46;33.62;77.22;;
77134;Laerm;25175;50.140;18.990;2023-05-07T14:13:54;43.40;34.07;56.51;;
77134;Laerm;25175;50.140;18.990;2023-05-07T14:17:01;41.18;33.81;62.43;;
77134;Laerm;25175;50.140;18.990;2023-05-07T14:20:08;51.08;34.15;71.02;;
77134;Laerm;25175;50.140;18.990;2023-05-07T14:23:14;41.39;33.89;65.85;;
77134;Laerm;25175;50.140;18.990;2023-05-07T14:26:23;45.88;34.66;57.58;;
77134;Laerm;25175;50.140;18.990;2023-05-07T14:29:35;46.10;34.32;64.68;;
77134;Laerm;25175;50.140;18.990;2023-05-07T14:32:40;51.66;34.45;71.44;;
77134;Laerm;25175;50.140;18.990;2023-05-07T14:35:46;49.61;33.92;71.29;;
77134;Laerm;25175;50.140;18.990;2023-05-07T14:38:51;44.62;33.69;66.25;;
77134;Laerm;25175;50.140;18.990;2023-05-07T14:42:00;41.91;34.17;55.49;;
77134;Laerm;25175;50.140;18.990;2023-05-07T14:45:07;50.08;34.42;69.39;;
77134;Laerm;25175;50.140;18.990;2023-05-07T14:48:14;51.50;34.37;70.34;;
77134;Laerm;25175;50.140;18.990;2023-05-07T14:51:20;50.61;34.11;74.43;;
77134;Laerm;25175;50.140;18.990;2023-05-07T14:54:27;49.74;33.34;71.89;;
77134;Laerm;25175;50.140;18.990;2023-05-07T14:57:35;48.71;33.78;68.34;;
77134;Laerm;25175;50.140;18.990;2023-05-07T15:00:41;42.51;33.39;56.05;;
77134;Laerm;25175;50.140;18.990;2023-05-07T15:03:52;41.48;33.51;59.61;;
77134;Laerm;25175;50.140;18.990;2023-05-07T15:06:58;43.95;33.16;56.61;;
77134;Laerm;25175;50.140;18.990;2023-05-07T15:13:38;45.26;33.80;63.66;;
77134;Laerm;25175;50.140;18.990;2023-05-07T15:16:46;44.63;34.28;57.39;;
77134;Laerm;25175;50.140;18.990;2023-05-07T15:19:52;42.32;33.83;53.62;;
77134;Laerm;25175;50.140;18.990;2023-05-07T15:22:57;40.83;33.39;57.72;;
77134;Laerm;25175;50.140;18.990;2023-05-07T15:26:04;41.28;33.94;53.74;;
77134;Laerm;25175;50.140;18.990;2023-05-07T15:29:12;45.60;33.83;62.88;;
77134;Laerm;25175;50.140;18.990;2023-05-07T15:32:18;41.21;33.91;55.58;;
77134;Laerm;25175;50.140;18.990;2023-05-07T15:35:23;44.59;34.17;56.19;;
77134;Laerm;25175;50.140;18.990;2023-05-07T15:38:29;44.43;33.70;61.76;;
77134;Laerm;25175;50.140;18.990;2023-05-07T15:41:34;42.72;33.54;61.37;;
77134;Laerm;25175;50.140;18.990;2023-05-07T15:44:45;45.30;33.94;61.31;;
77134;Laerm;25175;50.140;18.990;2023-05-07T15:47:50;42.68;34.12;55.08;;
77134;Laerm;25175;50.140;18.990;2023-05-07T15:50:59;46.34;34.41;62.14;;
77134;Laerm;25175;50.140;18.990;2023-05-07T15:54:04;43.86;34.05;60.74;;
77134;Laerm;25175;50.140;18.990;2023-05-07T15:57:11;43.66;33.22;62.37;;
77134;Laerm;25175;50.140;18.990;2023-05-07T16:00:20;49.83;34.16;72.22;;
77134;Laerm;25175;50.140;18.990;2023-05-07T16:04:00;49.67;34.72;65.37;;
77134;Laerm;25175;50.140;18.990;2023-05-07T16:07:05;42.95;34.21;56.70;;
77134;Laerm;25175;50.140;18.990;2023-05-07T16:10:11;44.77;34.16;56.62;;
77134;Laerm;25175;50.140;18.990;2023-05-07T16:13:16;43.12;33.79;59.18;;
77134;Laerm;25175;50.140;18.990;2023-05-07T16:16:24;43.55;34.46;56.52;;
77134;Laerm;25175;50.140;18.990;2023-05-07T16:19:31;43.11;33.90;59.62;;
77134;Laerm;25175;50.140;18.990;2023-05-07T16:22:35;40.18;33.59;53.52;;
77134;Laerm;25175;50.140;18.990;2023-05-07T16:25:41;37.74;33.55;51.43;;
77134;Laerm;25175;50.140;18.990;2023-05-07T16:28:45;42.77;33.86;53.77;;
77134;Laerm;25175;50.140;18.990;2023-05-07T16:31:53;41.59;34.01;68.92;;
77134;Laerm;25175;50.140;18.990;2023-05-07T16:34:58;44.01;34.12;65.57;;
77134;Laerm;25175;50.140;18.990;2023-05-07T16:38:03;44.13;33.30;58.24;;
77134;Laerm;25175;50.140;18.990;2023-05-07T16:41:10;44.06;34.05;64.94;;
77134;Laerm;25175;50.140;18.990;2023-05-07T16:44:16;43.31;34.25;57.42;;
77134;Laerm;25175;50.140;18.990;2023-05-07T16:47:23;44.32;34.00;66.40;;
77134;Laerm;25175;50.140;18.990;2023-05-07T16:50:28;42.28;34.81;61.17;;
77134;Laerm;25175;50.140;18.990;2023-05-07T16:53:33;39.48;34.29;52.76;;
77134;Laerm;25175;50.140;18.990;2023-05-07T16:56:39;43.87;34.74;61.04;;
77134;Laerm;25175;50.140;18.990;2023-05-07T16:59:44;43.05;34.53;57.71;;
77134;Laerm;25175;50.140;18.990;2023-05-07T17:02:52;44.73;34.41;62.76;;
77134;Laerm;25175;50.140;18.990;2023-05-07T17:05:56;42.12;34.41;54.08;;
77134;Laerm;25175;50.140;18.990;2023-05-07T17:09:02;41.47;34.83;55.01;;
77134;Laerm;25175;50.140;18.990;2023-05-07T17:12:07;43.24;34.35;56.33;;
77134;Laerm;25175;50.140;18.990;2023-05-07T17:15:12;42.66;33.90;56.21;;
77134;Laerm;25175;50.140;18.990;2023-05-07T17:18:19;39.60;33.77;53.92;;
77134;Laerm;25175;50.140;18.990;2023-05-07T17:21:25;42.22;34.06;55.90;;
77134;Laerm;25175;50.140;18.990;2023-05-07T17:24:29;45.37;34.31;64.19;;
77134;Laerm;25175;50.140;18.990;2023-05-07T17:27:34;40.98;33.99;58.54;;
77134;Laerm;25175;50.140;18.990;2023-05-07T17:30:39;40.94;33.81;59.52;;
77134;Laerm;25175;50.140;18.990;2023-05-07T17:33:47;43.55;33.61;64.52;;
77134;Laerm;25175;50.140;18.990;2023-05-07T17:36:51;43.09;34.07;56.08;;
77134;Laerm;25175;50.140;18.990;2023-05-07T17:39:59;41.41;33.95;57.31;;
77134;Laerm;25175;50.140;18.990;2023-05-07T17:43:03;41.40;33.84;57.79;;
77134;Laerm;25175;50.140;18.990;2023-05-07T17:46:09;42.74;33.99;57.59;;